Aeroporto :







RITROVATECI SU...

 
LOGIN :

Iscrizione | Disclaimer

   EN    FR    IT 

 









Sommario :    VFR   VFR Marginale   IFR   IFR Intensivo   IFR Molto Intensivo
Visibilità : 
Base nubi : 
>= 8 km
>= 3000ft
5 / 8 km
1000 / 3000 ft
1500m / 5 km
500 / 1000 ft
800 / 1500m
200 / 500 ft
< 800m
< 200 ft
Simboli :   Temporali  Nebbia  Neve Forte  Precipitazioni Forti  Vento > 20 kt






- Altitudine del aeroporto : 11 ft


KGHG - Marshfield Municipal George Harlow Field

ULTIMO METAR :
  • 012115Z AUTO 02008G15KT 330V060 10SM OVC034 06/01 A2974 RMK AO2

METARs OBSOLETI :
  • 012055Z AUTO 01008G18KT 310V030 10SM SCT017 OVC034 05/01 A2974 RMK AO2
  • 012035Z AUTO VRB06G17KT 10SM FEW017 FEW026 BKN034 06/01 A2974 RMK AO2
  • 012015Z AUTO 02009G19KT 290V060 10SM FEW017 SCT026 OVC034 05/01 A2974 RMK AO2
  • 011955Z AUTO 02007G18KT 290V090 10SM SCT018 BKN026 BKN032 06/01 A2975 RMK AO2
  • 011935Z AUTO 36009G18KT 320V040 10SM SCT018 SCT024 BKN034 06/01 A2976 RMK AO2
  • 011915Z AUTO VRB07G21KT 10SM SCT017 SCT022 BKN028 05/00 A2976 RMK AO2
  • 011855Z AUTO 03011G18KT 360V070 10SM SCT017 BKN023 BKN033 05/00 A2977 RMK AO2
  • 011835Z AUTO 35008G16KT 320V040 10SM FEW016 SCT023 BKN034 05/00 A2978 RMK AO2

TAF N/A



MetMap, La meteo Aeronautica in un colpo d'occhio ! - Copyright ORBIFLY Dicembre 2007 - Disclaimer

ORBIFLY MET'MAP TEAM :

Programmazione e sviluppo : Alexandra Zaïnal
Concezione : Baudouin d'Aumeries
Aiuto per la programmazione : Marc-Olivier Méhu
Supporto tecnico e logistico : Manuel Goepfert
Aiuto per la traduzione : Arnaldo La Scala

Contatto : metmap@orbifly.com




FONTI E CREDITI :

   NOAA